Armada, Nebraska
Current Conditions -  °F | °C
As of 4:55 PM on Tuesday 27 Jan 2015 (Local Time) from KEAR Reporting Station
Clear Clear  
Wind Chill: 64°   Ceiling: Unl
Heat Index: 64°   Visibility: 10mi
Dew Point: 34°   Wind: 7mph
Humidity: 32%   Direction: 180°S
Pressure: 29.94"   Gusts: NA
Location:  40.9599°N, 99.3688°W
Report Text: KEAR 272255Z 18006KT 10SM CLR 18/01 A2994 RMK AO1
Loading
Personal Weather Stations






























Interactive Weather Map New forecast layout! Learn more

10-Day Weather Forecast

Advertisements
Track Severe Weather on mobile